Time;durP1;ratioP1;P1;durP2;ratioP2;P2;SDS_P1;SDS_P2;PMS_P1;PMS_P2;Temp;Humidity;BMP_temperature;BMP_pressure;BME280_temperature;BME280_humidity;BME280_pressure;Samples;Min_cycle;Max_cycle;Signal;HPM_P1;HPM_P2
2023/03/12 00:00:50;;;;;;;7.40;4.73;;;;;;;-1.80;89.74;100252.41;5016704;28;20673;-71
2023/03/12 00:03:17;;;;;;;7.87;4.73;;;;;;;-1.88;89.37;100251.06;5029014;28;20195;-71
2023/03/12 00:05:44;;;;;;;9.10;3.77;;;;;;;-2.10;89.64;100248.88;5016728;28;20205;-71
2023/03/12 00:08:11;;;;;;;6.80;4.40;;;;;;;-2.10;90.16;100261.84;5030303;28;20200;-72
2023/03/12 00:10:41;;;;;;;9.30;4.30;;;;;;;-2.25;90.44;100260.91;5029613;28;20281;-71
2023/03/12 00:13:07;;;;;;;7.27;3.80;;;;;;;-2.38;90.97;100269.63;5028031;28;20846;-71
2023/03/12 00:15:38;;;;;;;5.73;3.90;;;;;;;-2.34;91.49;100273.31;5017593;28;20574;-71
2023/03/12 00:18:04;;;;;;;9.07;4.50;;;;;;;-2.44;91.83;100269.22;5019130;28;20200;-71
2023/03/12 00:20:31;;;;;;;9.33;4.50;;;;;;;-2.50;92.32;100274.03;5028070;28;20230;-72
2023/03/12 00:22:58;;;;;;;10.57;4.60;;;;;;;-2.46;93.01;100277.72;5023139;28;20200;-71
2023/03/12 00:25:24;;;;;;;6.23;3.90;;;;;;;-2.25;92.65;100271.28;5029666;28;20241;-71
2023/03/12 00:27:50;;;;;;;8.53;4.33;;;;;;;-2.00;91.86;100279.78;5020586;28;20192;-71
2023/03/12 00:30:17;;;;;;;8.97;4.23;;;;;;;-1.98;91.47;100272.97;5019212;28;20273;-71
2023/03/12 00:32:43;;;;;;;6.63;3.77;;;;;;;-1.93;91.42;100268.97;5023916;28;20214;-71
2023/03/12 00:35:12;;;;;;;8.20;4.10;;;;;;;-1.90;91.56;100268.25;5029810;28;20204;-72
2023/03/12 00:37:39;;;;;;;7.90;4.27;;;;;;;-1.90;91.72;100256.16;5028768;28;20197;-71
2023/03/12 00:40:08;;;;;;;7.83;4.27;;;;;;;-1.82;91.79;100266.13;5013421;28;20223;-71
2023/03/12 00:42:34;;;;;;;7.07;4.00;;;;;;;-1.73;91.06;100248.50;5026588;28;20598;-71
2023/03/12 00:45:01;;;;;;;8.40;4.07;;;;;;;-1.64;90.24;100257.72;5025432;28;20196;-71
2023/03/12 00:47:27;;;;;;;8.00;4.27;;;;;;;-1.60;89.69;100254.53;5023178;28;20204;-71
2023/03/12 00:49:53;;;;;;;10.30;5.07;;;;;;;-1.53;89.63;100262.66;5023715;28;20274;-71
2023/03/12 00:52:20;;;;;;;11.03;4.77;;;;;;;-1.52;88.62;100259.25;5022325;28;20310;-71
2023/03/12 00:54:46;;;;;;;8.97;4.57;;;;;;;-1.57;88.28;100259.00;5022958;28;20223;-71
2023/03/12 00:57:12;;;;;;;9.60;4.80;;;;;;;-1.63;88.00;100248.22;5017577;28;20203;-71
2023/03/12 00:59:39;;;;;;;8.23;4.30;;;;;;;-1.58;87.13;100249.41;5027337;28;20234;-72
2023/03/12 01:02:06;;;;;;;8.90;4.20;;;;;;;-1.65;87.27;100245.53;5014214;28;20196;-71
2023/03/12 01:04:33;;;;;;;7.20;4.33;;;;;;;-1.70;87.97;100251.25;5024820;28;20623;-72
2023/03/12 01:06:59;;;;;;;6.83;4.30;;;;;;;-1.74;88.24;100255.38;5027667;28;20665;-72
2023/03/12 01:09:26;;;;;;;7.33;3.93;;;;;;;-1.75;88.66;100256.19;5019947;28;20218;-71
2023/03/12 01:11:52;;;;;;;7.43;4.50;;;;;;;-1.75;88.75;100261.38;5021633;28;20215;-71
2023/03/12 01:14:18;;;;;;;9.67;4.40;;;;;;;-1.69;88.67;100264.34;5013016;28;20741;-71
2023/03/12 01:16:45;;;;;;;9.33;3.97;;;;;;;-1.53;88.20;100260.06;5025727;28;20204;-71
2023/03/12 01:19:11;;;;;;;7.70;4.00;;;;;;;-1.56;88.06;100255.59;5029294;28;20663;-71
2023/03/12 01:21:38;;;;;;;9.73;4.33;;;;;;;-1.59;88.05;100252.81;5025131;28;20589;-71
2023/03/12 01:24:04;;;;;;;6.13;4.17;;;;;;;-1.59;88.24;100253.72;5027342;28;20703;-71
2023/03/12 01:26:31;;;;;;;11.07;4.57;;;;;;;-1.48;87.89;100250.84;5019793;28;20231;-71
2023/03/12 01:28:57;;;;;;;8.77;4.13;;;;;;;-1.48;87.97;100243.06;5024047;28;20207;-71
2023/03/12 01:31:23;;;;;;;12.07;4.80;;;;;;;-1.44;88.32;100242.41;5025781;28;20247;-71
2023/03/12 01:33:51;;;;;;;7.90;4.70;;;;;;;-1.36;88.38;100248.94;5027896;28;20566;-72
2023/03/12 01:36:26;;;;;;;7.70;4.77;;;;;;;-1.32;88.35;100254.41;5024956;28;20610;-72
2023/03/12 01:38:55;;;;;;;9.30;4.73;;;;;;;-1.29;88.49;100251.97;5023221;28;20295;-71
2023/03/12 01:41:23;;;;;;;8.87;4.77;;;;;;;-1.16;88.25;100256.22;5023318;28;20748;-71
2023/03/12 01:43:50;;;;;;;11.27;5.00;;;;;;;-1.11;88.40;100251.28;5026300;28;20195;-71
2023/03/12 01:46:35;;;;;;;9.40;5.50;;;;;;;-1.12;88.40;100252.97;5032574;28;20291;-71
2023/03/12 01:49:07;;;;;;;9.60;5.00;;;;;;;-1.10;88.03;100256.56;5024890;28;20519;-71
2023/03/12 01:51:51;;;;;;;8.97;4.93;;;;;;;-1.10;88.31;100247.88;5024216;28;20224;-71
2023/03/12 01:54:20;;;;;;;9.80;5.07;;;;;;;-1.13;88.57;100245.09;5031102;28;20665;-71
2023/03/12 01:56:48;;;;;;;8.83;4.80;;;;;;;-1.13;88.75;100234.69;5024577;28;20192;-71
2023/03/12 01:59:20;;;;;;;11.00;5.70;;;;;;;-1.13;88.99;100240.78;5022129;28;20240;-72
2023/03/12 02:01:47;;;;;;;7.97;5.20;;;;;;;-1.12;88.86;100236.50;5022025;28;20280;-71
2023/03/12 02:04:16;;;;;;;7.93;5.20;;;;;;;-1.14;89.00;100236.41;5029220;28;20243;-71
2023/03/12 02:07:12;;;;;;;8.83;4.70;;;;;;;-1.13;88.96;100238.19;5018441;28;20203;-72
2023/03/12 02:09:42;;;;;;;9.23;4.90;;;;;;;-1.15;88.88;100223.31;5027913;28;20277;-72
2023/03/12 02:12:09;;;;;;;8.30;5.00;;;;;;;-1.13;89.31;100212.22;5026398;28;20204;-71
2023/03/12 02:14:36;;;;;;;8.00;5.17;;;;;;;-1.11;89.15;100227.88;5029638;28;20245;-72
2023/03/12 02:17:03;;;;;;;7.17;4.50;;;;;;;-1.10;88.82;100217.56;5027013;28;20213;-72
2023/03/12 02:20:11;;;;;;;9.40;4.90;;;;;;;-1.10;88.58;100216.69;5022150;28;20574;-72
2023/03/12 02:22:41;;;;;;;7.83;4.53;;;;;;;-1.06;87.70;100216.94;5007347;28;20199;-71
2023/03/12 02:25:45;;;;;;;8.70;4.30;;;;;;;-0.84;85.27;100221.63;5016801;28;20212;-71
2023/03/12 02:28:15;;;;;;;8.20;4.47;;;;;;;-0.88;85.09;100226.56;5023497;28;20231;-71
2023/03/12 02:30:48;;;;;;;8.77;4.57;;;;;;;-0.97;85.35;100224.34;5023412;28;20221;-72
2023/03/12 02:33:15;;;;;;;6.33;4.33;;;;;;;-1.01;86.00;100222.38;5032267;28;20637;-71
2023/03/12 02:35:43;;;;;;;7.70;3.87;;;;;;;-1.05;86.58;100221.31;5029786;28;20650;-71
2023/03/12 02:38:42;;;;;;;8.60;4.37;;;;;;;-1.06;86.56;100213.44;5024264;28;20206;-71
2023/03/12 02:41:15;;;;;;;11.40;3.83;;;;;;;-1.03;86.84;100206.72;5022593;28;20215;-72
2023/03/12 02:43:48;;;;;;;7.00;4.47;;;;;;;-1.00;86.77;100206.00;5028299;28;20189;-72
2023/03/12 02:46:15;;;;;;;7.37;4.30;;;;;;;-0.95;86.78;100201.94;5030526;28;20235;-71
2023/03/12 02:48:41;;;;;;;12.93;4.17;;;;;;;-0.90;86.73;100195.28;5022502;28;20561;-72
2023/03/12 02:51:08;;;;;;;7.13;4.10;;;;;;;-0.82;86.52;100198.31;5029677;28;20295;-71
2023/03/12 02:53:34;;;;;;;6.97;4.23;;;;;;;-0.78;85.73;100201.19;5028990;28;20245;-72
2023/03/12 02:56:01;;;;;;;6.70;4.53;;;;;;;-0.75;85.64;100195.25;5028261;28;20589;-71
2023/03/12 02:58:27;;;;;;;7.77;4.40;;;;;;;-0.70;85.54;100193.81;5024306;28;20622;-71
2023/03/12 03:00:53;;;;;;;7.17;3.97;;;;;;;-0.68;85.52;100195.66;5014288;28;20296;-71
2023/03/12 03:03:20;;;;;;;5.57;3.93;;;;;;;-0.68;85.77;100186.97;5026390;28;20243;-71
2023/03/12 03:05:46;;;;;;;10.27;4.13;;;;;;;-0.67;85.80;100191.38;5027423;28;20269;-71
2023/03/12 03:08:12;;;;;;;6.73;3.90;;;;;;;-0.70;85.51;100189.50;5025338;28;20237;-71
2023/03/12 03:10:39;;;;;;;9.20;4.40;;;;;;;-0.65;85.13;100189.75;5023421;28;20253;-72
2023/03/12 03:13:05;;;;;;;6.20;3.80;;;;;;;-0.69;85.79;100193.00;5027383;28;20628;-71
2023/03/12 03:15:31;;;;;;;9.97;4.07;;;;;;;-0.65;85.64;100179.34;5018036;28;20687;-71
2023/03/12 03:17:58;;;;;;;6.73;4.07;;;;;;;-0.61;85.03;100181.28;5025045;28;20201;-72
2023/03/12 03:20:25;;;;;;;5.83;4.00;;;;;;;-0.39;81.72;100179.03;5031343;28;20249;-71
2023/03/12 03:22:51;;;;;;;8.57;4.40;;;;;;;-0.14;79.96;100180.31;5021466;28;20201;-72
2023/03/12 03:25:21;;;;;;;6.63;3.87;;;;;;;-0.12;79.57;100176.97;5025203;28;20201;-72
2023/03/12 03:27:47;;;;;;;7.07;4.10;;;;;;;-0.16;80.11;100169.81;5029073;28;20197;-71
2023/03/12 03:30:15;;;;;;;12.87;4.27;;;;;;;-0.18;80.70;100186.19;5031231;28;20299;-72
2023/03/12 03:32:42;;;;;;;8.43;4.47;;;;;;;-0.18;81.18;100178.38;5028527;28;20312;-72
2023/03/12 03:35:08;;;;;;;5.50;3.70;;;;;;;-0.21;81.57;100180.81;5031137;28;20204;-72
2023/03/12 03:37:35;;;;;;;7.77;4.20;;;;;;;-0.26;81.88;100182.28;5027225;28;20198;-71
2023/03/12 03:40:01;;;;;;;7.00;4.17;;;;;;;-0.19;81.69;100182.69;5029145;28;20736;-71
2023/03/12 03:42:28;;;;;;;7.90;4.40;;;;;;;-0.26;82.14;100175.38;5024776;28;20294;-71
2023/03/12 03:44:55;;;;;;;7.27;4.70;;;;;;;-0.36;82.57;100178.31;5020217;28;20202;-72
2023/03/12 03:47:21;;;;;;;8.97;4.80;;;;;;;-0.43;83.01;100187.47;5021197;28;20201;-72
2023/03/12 03:49:48;;;;;;;7.57;4.93;;;;;;;-0.51;83.61;100187.88;5023806;28;20203;-71
2023/03/12 03:52:14;;;;;;;5.40;4.40;;;;;;;-0.38;83.78;100186.03;5022265;28;20259;-72
2023/03/12 03:54:40;;;;;;;12.43;4.30;;;;;;;-0.39;83.67;100194.66;5029391;28;20220;-71
2023/03/12 03:57:07;;;;;;;6.97;4.47;;;;;;;-0.28;83.04;100191.72;5029435;28;20201;-71
2023/03/12 03:59:33;;;;;;;6.43;4.27;;;;;;;-0.33;83.16;100188.88;5027226;28;20637;-72
2023/03/12 04:02:01;;;;;;;9.30;4.93;;;;;;;-0.33;83.59;100176.75;5024772;28;20221;-71
2023/03/12 04:04:27;;;;;;;11.27;5.77;;;;;;;-0.13;82.39;100183.00;5030395;28;20192;-71
2023/03/12 04:06:54;;;;;;;11.87;6.10;;;;;;;-0.03;82.05;100179.16;5029557;28;20688;-71
2023/03/12 04:09:20;;;;;;;10.80;6.13;;;;;;;-0.09;82.01;100176.25;5029474;28;20242;-72
2023/03/12 04:11:46;;;;;;;12.27;6.47;;;;;;;-0.14;82.29;100183.81;5018254;28;20488;-71
2023/03/12 04:14:13;;;;;;;11.17;6.53;;;;;;;-0.17;82.50;100177.56;5030305;28;20230;-72
2023/03/12 04:16:39;;;;;;;11.57;6.70;;;;;;;-0.18;82.69;100173.16;5026975;28;20229;-71
2023/03/12 04:19:05;;;;;;;11.40;6.70;;;;;;;-0.14;82.78;100178.59;5024603;28;20237;-72
2023/03/12 04:21:32;;;;;;;9.27;6.03;;;;;;;-0.09;82.70;100181.44;5027887;28;20221;-71
2023/03/12 04:23:58;;;;;;;11.80;5.90;;;;;;;-0.12;82.89;100170.88;5020336;28;20223;-71
2023/03/12 04:26:25;;;;;;;12.60;7.10;;;;;;;-0.09;82.10;100176.25;5026120;28;20208;-72
2023/03/12 04:28:51;;;;;;;10.70;6.43;;;;;;;-0.14;82.81;100175.09;5016750;28;20203;-71
2023/03/12 04:31:17;;;;;;;10.10;6.20;;;;;;;-0.17;82.39;100180.16;5017942;28;20262;-72
2023/03/12 04:33:44;;;;;;;12.33;6.80;;;;;;;-0.11;82.20;100177.88;5027160;28;20224;-71
2023/03/12 04:36:12;;;;;;;11.03;6.23;;;;;;;-0.10;82.20;100170.16;5023446;28;20196;-71
2023/03/12 04:38:38;;;;;;;8.30;5.60;;;;;;;-0.02;82.66;100166.22;5029858;28;20197;-71
2023/03/12 04:41:10;;;;;;;11.60;6.60;;;;;;;-0.02;82.35;100179.22;5020472;28;20274;-72
2023/03/12 04:43:37;;;;;;;14.00;6.20;;;;;;;-0.01;82.05;100165.41;5024303;28;20250;-71
2023/03/12 04:46:04;;;;;;;12.17;6.43;;;;;;;-0.04;81.98;100167.84;5019500;28;20203;-71
2023/03/12 04:48:31;;;;;;;9.70;6.60;;;;;;;-0.02;82.14;100163.63;5020884;28;20227;-72
2023/03/12 04:50:57;;;;;;;11.13;6.93;;;;;;;-0.02;82.39;100158.41;5025313;28;20720;-71
2023/03/12 04:53:24;;;;;;;11.60;6.37;;;;;;;-0.01;82.45;100159.31;5026644;28;20219;-71
2023/03/12 04:55:51;;;;;;;12.07;6.13;;;;;;;0.08;82.20;100156.31;5021130;28;20732;-72
2023/03/12 04:58:18;;;;;;;14.73;6.53;;;;;;;0.13;81.80;100153.13;5025140;28;20199;-71
2023/03/12 05:00:47;;;;;;;13.50;6.33;;;;;;;0.18;81.01;100156.84;5024333;28;20220;-71
2023/03/12 05:03:13;;;;;;;9.27;6.10;;;;;;;0.16;81.38;100155.88;5023655;28;20545;-72
2023/03/12 05:05:40;;;;;;;10.63;6.50;;;;;;;0.16;80.91;100163.69;5019048;28;20207;-71
2023/03/12 05:08:07;;;;;;;9.07;5.87;;;;;;;0.19;81.07;100160.34;5019531;28;20205;-72
2023/03/12 05:10:33;;;;;;;9.43;6.20;;;;;;;0.24;80.16;100164.97;5018651;28;20217;-72
2023/03/12 05:12:59;;;;;;;10.87;6.70;;;;;;;0.27;79.71;100159.91;5026600;28;20231;-72
2023/03/12 05:15:26;;;;;;;10.93;6.43;;;;;;;0.27;79.57;100159.91;5025100;28;20197;-72
2023/03/12 05:17:52;;;;;;;10.00;6.10;;;;;;;0.31;79.23;100156.63;5016133;28;20224;-72
2023/03/12 05:20:20;;;;;;;12.07;6.47;;;;;;;0.27;79.41;100148.59;5019244;28;20233;-71
2023/03/12 05:22:47;;;;;;;10.63;6.00;;;;;;;0.28;79.69;100142.56;5021622;28;20196;-71
2023/03/12 05:25:13;;;;;;;10.13;6.50;;;;;;;0.33;79.10;100148.91;5023410;28;20203;-71
2023/03/12 05:27:39;;;;;;;10.70;6.60;;;;;;;0.36;78.59;100154.25;5024095;28;20200;-71
2023/03/12 05:30:06;;;;;;;11.30;6.03;;;;;;;0.35;79.24;100152.47;5023572;28;20668;-71
2023/03/12 05:32:33;;;;;;;10.57;6.37;;;;;;;0.28;79.65;100153.88;5025406;28;20431;-71
2023/03/12 05:34:59;;;;;;;9.80;6.30;;;;;;;0.27;80.38;100144.28;5020002;28;20729;-72
2023/03/12 05:37:26;;;;;;;10.60;6.40;;;;;;;0.29;81.02;100136.53;5019211;28;20198;-72
2023/03/12 05:39:55;;;;;;;10.10;7.10;;;;;;;0.38;80.54;100134.38;5027431;28;20224;-71
2023/03/12 05:42:23;;;;;;;9.10;6.03;;;;;;;0.38;80.02;100134.38;5021331;28;20234;-71
2023/03/12 05:44:51;;;;;;;12.73;6.90;;;;;;;0.43;79.81;100140.75;5027040;28;21654;-71
2023/03/12 05:47:18;;;;;;;10.77;6.20;;;;;;;0.49;79.83;100137.53;5022700;28;20200;-72
2023/03/12 05:49:44;;;;;;;8.83;5.60;;;;;;;0.49;79.65;100133.22;5022430;28;20199;-72
2023/03/12 05:52:11;;;;;;;10.07;6.80;;;;;;;0.53;79.49;100127.34;5020018;28;20220;-71
2023/03/12 05:54:37;;;;;;;13.57;6.60;;;;;;;0.60;79.34;100120.72;5026332;28;20259;-71
2023/03/12 05:57:04;;;;;;;10.87;6.60;;;;;;;0.60;79.48;100128.53;5021300;28;20251;-71
2023/03/12 05:59:33;;;;;;;12.20;7.10;;;;;;;0.56;79.43;100124.88;5028989;28;20903;-71
2023/03/12 06:01:59;;;;;;;10.23;6.50;;;;;;;0.54;80.84;100131.72;5022224;28;20224;-71
2023/03/12 06:04:26;;;;;;;10.47;6.60;;;;;;;0.47;79.85;100123.56;5018946;28;20237;-71
2023/03/12 06:06:52;;;;;;;10.47;6.27;;;;;;;0.44;80.74;100131.22;5025796;28;20197;-71
2023/03/12 06:09:18;;;;;;;12.97;6.57;;;;;;;0.46;80.60;100133.06;5027800;28;20201;-71
2023/03/12 06:11:45;;;;;;;13.83;6.67;;;;;;;0.49;80.71;100125.41;5026537;28;20255;-72
2023/03/12 06:14:11;;;;;;;14.03;6.30;;;;;;;0.47;81.10;100136.56;5027988;28;20258;-71
2023/03/12 06:16:38;;;;;;;10.50;6.43;;;;;;;0.54;80.46;100133.44;5018777;28;20198;-71
2023/03/12 06:19:05;;;;;;;11.90;5.90;;;;;;;0.48;80.53;100131.44;5018346;28;20198;-72
2023/03/12 06:21:34;;;;;;;12.77;6.53;;;;;;;0.51;80.90;100131.59;5031177;28;20244;-71
2023/03/12 06:24:03;;;;;;;16.10;7.00;;;;;;;0.57;81.00;100144.91;5020428;28;20219;-71
2023/03/12 06:26:29;;;;;;;9.83;6.33;;;;;;;0.60;80.24;100126.81;5020323;28;20236;-71
2023/03/12 06:28:56;;;;;;;11.63;6.37;;;;;;;0.60;80.36;100124.22;5024534;28;20734;-72
2023/03/12 06:31:23;;;;;;;13.43;6.67;;;;;;;0.64;80.85;100125.25;5025677;28;20253;-71
2023/03/12 06:33:49;;;;;;;13.70;6.33;;;;;;;0.72;80.34;100129.09;5024992;28;20217;-71
2023/03/12 06:36:16;;;;;;;9.40;6.53;;;;;;;0.81;80.14;100136.50;5021467;28;20298;-71
2023/03/12 06:38:43;;;;;;;13.13;6.80;;;;;;;0.92;78.82;100143.13;5025829;28;20198;-72
2023/03/12 06:41:15;;;;;;;9.03;5.67;;;;;;;1.03;78.07;100144.50;5024228;28;20217;-71
2023/03/12 06:43:43;;;;;;;11.10;6.37;;;;;;;1.10;78.12;100149.19;5031962;28;20202;-71
2023/03/12 06:46:12;;;;;;;12.30;7.40;;;;;;;1.14;78.49;100145.00;5031198;28;20230;-71
2023/03/12 06:48:40;;;;;;;12.93;6.97;;;;;;;1.16;78.39;100144.25;5027046;28;20202;-71
2023/03/12 06:51:08;;;;;;;13.53;7.03;;;;;;;1.19;78.75;100141.78;5018395;28;20238;-71
2023/03/12 06:53:35;;;;;;;12.53;7.17;;;;;;;1.15;78.71;100138.97;5032095;28;20631;-71
2023/03/12 06:56:02;;;;;;;13.57;7.93;;;;;;;1.13;78.89;100140.59;5023223;28;20277;-71
2023/03/12 06:58:28;;;;;;;15.17;7.90;;;;;;;1.11;79.59;100135.31;5028066;28;20234;-71
2023/03/12 07:00:55;;;;;;;13.83;7.40;;;;;;;1.08;80.56;100131.69;5015197;28;20277;-71
2023/03/12 07:03:21;;;;;;;11.37;7.43;;;;;;;1.11;81.67;100135.31;5027634;28;20195;-71
2023/03/12 07:05:49;;;;;;;11.30;8.13;;;;;;;1.10;82.32;100133.53;5020336;28;20602;-71
2023/03/12 07:08:17;;;;;;;17.17;7.83;;;;;;;0.96;82.83;100124.19;5029538;28;20281;-71
2023/03/12 07:10:44;;;;;;;12.40;8.10;;;;;;;0.83;84.46;100129.66;5022829;28;20562;-71
2023/03/12 07:13:12;;;;;;;12.33;7.63;;;;;;;0.74;85.42;100124.88;5030462;28;20261;-70
2023/03/12 07:15:38;;;;;;;13.60;6.90;;;;;;;0.67;87.04;100132.31;5025743;28;20225;-71
2023/03/12 07:18:07;;;;;;;11.20;7.43;;;;;;;0.67;87.27;100134.91;5019656;28;20248;-71
2023/03/12 07:20:39;;;;;;;12.00;7.63;;;;;;;0.63;87.53;100149.53;5027153;28;20212;-70
2023/03/12 07:23:06;;;;;;;13.13;7.97;;;;;;;0.66;87.90;100154.88;5025121;28;20193;-71
2023/03/12 07:25:37;;;;;;;10.70;7.27;;;;;;;0.76;89.27;100158.81;5026417;28;20608;-71
2023/03/12 07:28:04;;;;;;;13.73;7.90;;;;;;;0.84;89.47;100153.19;5019432;28;20208;-71
2023/03/12 07:30:32;;;;;;;17.37;8.33;;;;;;;0.90;89.64;100150.84;5020840;28;20219;-71
2023/03/12 07:33:00;;;;;;;15.77;8.20;;;;;;;0.90;89.18;100145.66;5027425;28;20198;-71
2023/03/12 07:35:27;;;;;;;11.07;7.77;;;;;;;0.89;88.30;100137.75;5030738;28;20260;-71
2023/03/12 07:37:54;;;;;;;13.63;8.27;;;;;;;0.95;89.09;100127.63;5024004;28;20212;-71
2023/03/12 07:40:20;;;;;;;14.97;8.07;;;;;;;0.95;88.67;100125.00;5024581;28;20723;-71
2023/03/12 07:42:47;;;;;;;12.73;7.80;;;;;;;0.86;89.19;100125.47;5026127;28;20315;-71
2023/03/12 07:45:13;;;;;;;13.03;8.03;;;;;;;0.80;89.82;100130.41;5024830;28;20200;-71
2023/03/12 07:47:39;;;;;;;13.13;7.77;;;;;;;0.79;90.80;100132.91;5026224;28;20587;-71
2023/03/12 07:50:06;;;;;;;16.60;9.10;;;;;;;0.75;90.16;100144.00;5026572;28;20272;-71
2023/03/12 07:52:33;;;;;;;16.00;8.53;;;;;;;0.69;90.31;100141.09;5022585;28;20607;-70
2023/03/12 07:54:59;;;;;;;13.70;8.87;;;;;;;0.73;90.81;100138.72;5023056;28;20222;-70
2023/03/12 07:57:25;;;;;;;14.07;8.53;;;;;;;0.63;91.21;100144.31;5024311;28;20204;-70
2023/03/12 07:59:52;;;;;;;14.60;8.90;;;;;;;0.56;92.27;100150.94;5026853;28;20229;-71
2023/03/12 08:02:19;;;;;;;14.30;8.27;;;;;;;0.46;92.54;100138.28;5030592;28;20293;-70
2023/03/12 08:04:45;;;;;;;11.80;8.63;;;;;;;0.47;92.83;100139.19;5021504;28;20197;-70
2023/03/12 08:07:13;;;;;;;14.13;8.63;;;;;;;0.52;94.03;100135.97;5026735;28;20203;-71
2023/03/12 08:09:40;;;;;;;17.67;9.73;;;;;;;0.60;93.34;100133.75;5022334;28;20195;-70
2023/03/12 08:12:07;;;;;;;20.53;9.30;;;;;;;0.53;93.33;100137.75;5030661;28;20227;-71
2023/03/12 08:14:34;;;;;;;17.50;9.27;;;;;;;0.57;93.79;100138.81;5025323;28;20637;-71
2023/03/12 08:17:01;;;;;;;16.37;9.47;;;;;;;0.65;92.80;100139.16;5025965;28;20203;-70
2023/03/12 08:19:27;;;;;;;13.03;8.27;;;;;;;0.77;93.00;100139.75;5024041;28;20264;-71
2023/03/12 08:21:54;;;;;;;15.13;9.50;;;;;;;0.82;93.41;100144.41;5026596;28;20668;-71
2023/03/12 08:24:20;;;;;;;14.80;9.20;;;;;;;0.81;94.20;100160.84;5023211;28;20246;-70
2023/03/12 08:26:47;;;;;;;15.57;10.00;;;;;;;0.72;94.11;100162.09;5029882;28;20219;-70
2023/03/12 08:29:14;;;;;;;23.77;9.37;;;;;;;0.80;94.67;100163.34;5023705;28;20201;-70
2023/03/12 08:31:41;;;;;;;19.20;10.27;;;;;;;0.79;93.84;100154.63;5027597;28;20274;-70
2023/03/12 08:34:27;;;;;;;19.07;10.90;;;;;;;0.88;94.59;100149.91;5023480;28;20598;-70
2023/03/12 08:36:53;;;;;;;17.77;10.30;;;;;;;0.99;93.68;100141.69;5027703;28;20210;-70
2023/03/12 08:39:19;;;;;;;18.30;10.07;;;;;;;1.13;94.45;100138.00;5028579;28;20201;-70
2023/03/12 08:41:46;;;;;;;16.87;11.07;;;;;;;1.22;93.92;100128.00;5028476;28;20250;-70
2023/03/12 08:44:12;;;;;;;17.13;10.27;;;;;;;1.25;93.49;100121.22;5029256;28;20287;-70
2023/03/12 08:46:38;;;;;;;15.97;10.57;;;;;;;1.33;92.97;100129.38;5025080;28;20199;-70
2023/03/12 08:49:05;;;;;;;19.53;10.77;;;;;;;1.38;93.32;100140.94;5026192;28;20569;-70
2023/03/12 08:51:31;;;;;;;14.73;9.83;;;;;;;1.42;93.35;100137.63;5029308;28;20751;-70
2023/03/12 08:53:57;;;;;;;16.73;10.90;;;;;;;1.41;93.56;100148.00;5029223;28;20201;-70
2023/03/12 08:56:24;;;;;;;28.30;14.00;;;;;;;1.41;92.84;100142.78;5029313;28;20261;-70
2023/03/12 08:58:50;;;;;;;20.87;11.50;;;;;;;1.44;93.55;100148.13;5027909;28;20244;-70
2023/03/12 09:01:17;;;;;;;19.60;11.03;;;;;;;1.43;93.01;100148.97;5025525;28;20231;-70
2023/03/12 09:03:44;;;;;;;22.37;11.17;;;;;;;1.57;92.92;100148.75;5021089;28;20723;-71
2023/03/12 09:06:15;;;;;;;20.23;11.87;;;;;;;1.56;92.50;100141.75;5018040;28;20231;-71
2023/03/12 09:08:43;;;;;;;19.03;11.50;;;;;;;1.63;93.71;100142.94;5025982;28;20199;-70
2023/03/12 09:11:10;;;;;;;21.97;12.47;;;;;;;1.52;93.66;100133.72;5026448;28;20591;-71
2023/03/12 09:13:38;;;;;;;21.17;12.13;;;;;;;1.68;94.00;100132.69;5029149;28;20200;-70
2023/03/12 09:16:24;;;;;;;21.63;12.47;;;;;;;1.94;93.39;100132.09;5021232;28;20204;-70
2023/03/12 09:18:51;;;;;;;25.83;12.13;;;;;;;2.06;93.41;100119.59;5028942;28;20570;-70
2023/03/12 09:21:18;;;;;;;18.03;11.97;;;;;;;2.31;93.40;100136.28;5027990;28;20214;-70
2023/03/12 09:23:46;;;;;;;19.63;12.13;;;;;;;2.30;91.96;100132.78;5021701;28;20191;-71
2023/03/12 09:26:13;;;;;;;19.07;12.70;;;;;;;2.33;90.75;100130.28;5026293;28;20572;-70
2023/03/12 09:28:39;;;;;;;17.03;12.00;;;;;;;2.49;91.28;100139.69;5029546;28;20281;-70
2023/03/12 09:31:05;;;;;;;20.37;12.63;;;;;;;2.64;89.90;100139.41;5029153;28;20215;-70
2023/03/12 09:33:35;;;;;;;21.50;12.30;;;;;;;2.57;90.06;100129.53;5021540;28;20306;-70
2023/03/12 09:36:02;;;;;;;17.53;11.37;;;;;;;2.72;91.11;100114.47;5023003;28;20215;-71
2023/03/12 09:38:30;;;;;;;21.13;13.10;;;;;;;2.76;90.31;100121.59;5024417;28;20231;-70
2023/03/12 09:40:57;;;;;;;21.80;12.67;;;;;;;2.78;90.01;100131.28;5022595;28;20229;-70
2023/03/12 09:43:46;;;;;;;16.80;11.80;;;;;;;2.80;90.52;100124.44;5026207;28;20341;-70
2023/03/12 09:46:22;;;;;;;18.17;11.20;;;;;;;2.97;89.35;100124.19;5028286;28;20200;-70
2023/03/12 09:48:49;;;;;;;21.53;11.67;;;;;;;2.98;89.48;100116.41;5021146;28;20227;-70
2023/03/12 09:51:22;;;;;;;19.73;11.47;;;;;;;3.03;89.53;100141.00;5026800;28;20868;-71
2023/03/12 09:53:53;;;;;;;18.83;10.97;;;;;;;3.12;89.16;100138.75;5027474;28;20240;-70
2023/03/12 09:56:21;;;;;;;15.77;11.03;;;;;;;3.23;89.02;100138.28;5032227;28;20626;-70
2023/03/12 09:58:50;;;;;;;18.47;11.37;;;;;;;3.29;88.53;100134.19;5027234;28;20575;-70
2023/03/12 10:01:47;;;;;;;19.47;11.63;;;;;;;3.33;87.52;100133.47;5026361;28;20218;-70
2023/03/12 10:04:27;;;;;;;19.97;11.40;;;;;;;3.41;87.66;100133.75;5030406;28;20198;-70
2023/03/12 10:07:19;;;;;;;20.87;12.40;;;;;;;3.39;87.13;100145.88;5024704;28;20240;-70
2023/03/12 10:10:24;;;;;;;20.23;12.47;;;;;;;3.42;86.69;100154.72;5029789;28;20660;-70
2023/03/12 10:13:18;;;;;;;21.80;12.80;;;;;;;3.33;87.46;100149.16;5014746;28;20605;-70
2023/03/12 10:16:00;;;;;;;20.70;12.67;;;;;;;3.30;88.66;100154.28;5032784;28;20242;-70
2023/03/12 10:18:36;;;;;;;22.70;13.23;;;;;;;3.22;88.65;100150.47;5031180;28;20195;-71
2023/03/12 10:21:12;;;;;;;21.60;13.73;;;;;;;3.17;89.38;100152.00;5031462;28;20297;-70
2023/03/12 10:24:01;;;;;;;20.77;13.40;;;;;;;3.40;89.89;100137.19;5023879;28;20245;-70
2023/03/12 10:27:00;;;;;;;22.83;13.50;;;;;;;3.63;90.07;100136.34;5028209;28;20191;-70
2023/03/12 10:29:37;;;;;;;22.93;14.17;;;;;;;3.87;89.64;100138.94;5023014;28;20197;-71
2023/03/12 10:32:10;;;;;;;24.90;14.87;;;;;;;4.00;86.11;100135.00;5031513;28;20706;-70
2023/03/12 10:34:42;;;;;;;25.40;14.33;;;;;;;4.17;85.63;100122.53;5027843;28;20213;-70
2023/03/12 10:37:18;;;;;;;21.57;13.47;;;;;;;4.34;85.96;100123.97;5029724;28;20197;-70
2023/03/12 10:39:45;;;;;;;23.30;14.20;;;;;;;4.52;84.20;100118.47;5032457;28;20259;-70
2023/03/12 10:42:17;;;;;;;19.83;12.90;;;;;;;4.51;82.26;100112.34;5030348;28;20218;-70
2023/03/12 10:44:48;;;;;;;20.83;13.00;;;;;;;4.74;84.73;100105.19;5026633;28;20260;-70
2023/03/12 10:47:37;;;;;;;25.63;13.77;;;;;;;4.71;82.77;100111.22;5027321;28;20196;-70
2023/03/12 10:50:23;;;;;;;20.03;13.20;;;;;;;4.99;83.27;100112.13;5025754;28;20223;-71
2023/03/12 10:52:52;;;;;;;23.60;13.70;;;;;;;5.22;82.27;100118.09;5016193;28;20212;-71
2023/03/12 10:55:28;;;;;;;21.87;13.17;;;;;;;4.87;82.91;100122.25;5027894;28;20716;-70
2023/03/12 10:57:55;;;;;;;21.57;13.37;;;;;;;4.92;81.64;100120.66;5026107;28;20670;-70
2023/03/12 11:00:27;;;;;;;20.80;13.20;;;;;;;5.03;82.43;100129.75;5024265;28;20252;-70
2023/03/12 11:02:57;;;;;;;22.93;13.27;;;;;;;5.18;81.55;100119.69;5024405;28;20213;-70
2023/03/12 11:05:26;;;;;;;22.03;13.63;;;;;;;5.13;82.68;100121.28;5023656;28;20227;-70
2023/03/12 11:07:52;;;;;;;22.90;14.43;;;;;;;5.23;81.54;100112.88;5025846;28;20662;-70
2023/03/12 11:10:37;;;;;;;20.77;12.57;;;;;;;5.15;81.17;100121.34;5023002;28;20251;-71
2023/03/12 11:13:20;;;;;;;22.37;13.00;;;;;;;5.27;81.85;100108.63;5024881;28;20210;-71
2023/03/12 11:15:47;;;;;;;21.00;13.70;;;;;;;5.65;80.76;100129.00;5027029;28;20621;-70
2023/03/12 11:18:20;;;;;;;20.60;12.63;;;;;;;5.58;78.86;100127.03;5026561;28;20200;-70
2023/03/12 11:21:09;;;;;;;19.70;12.37;;;;;;;5.82;77.49;100131.22;5024717;28;20208;-70
2023/03/12 11:23:39;;;;;;;20.50;13.40;;;;;;;6.00;79.57;100128.22;5022863;28;20228;-70
2023/03/12 11:26:19;;;;;;;19.40;12.80;;;;;;;5.98;77.94;100129.06;5027048;28;20612;-70
2023/03/12 11:28:49;;;;;;;21.00;12.93;;;;;;;5.66;79.25;100128.16;5025638;28;20653;-70
2023/03/12 11:31:26;;;;;;;21.20;12.53;;;;;;;6.00;77.90;100134.38;5027499;28;20250;-70